Time;durP1;ratioP1;P1;durP2;ratioP2;P2;SDS_P1;SDS_P2;PMS_P1;PMS_P2;Temp;Humidity;BMP_temperature;BMP_pressure;BME280_temperature;BME280_humidity;BME280_pressure;Samples;Min_cycle;Max_cycle;Signal;HPM_P1;HPM_P2
2022/04/30 00:00:19;;;;;;;17.30;9.23;;;5.90;99.90;;;;;;5006149;28;143846;-82
2022/04/30 00:02:47;;;;;;;18.15;9.25;;;5.90;99.90;;;;;;5036018;28;20064;-79
2022/04/30 00:05:14;;;;;;;22.02;10.07;;;5.80;99.90;;;;;;4963665;28;156755;-82
2022/04/30 00:07:40;;;;;;;18.05;9.95;;;5.90;99.90;;;;;;5033086;28;20508;-81
2022/04/30 00:10:07;;;;;;;20.40;9.43;;;5.80;99.90;;;;;;5006704;28;30365;-82
2022/04/30 00:12:34;;;;;;;20.42;10.38;;;5.80;99.90;;;;;;5004329;28;20053;-81
2022/04/30 00:15:00;;;;;;;19.92;10.00;;;5.80;99.90;;;;;;4985892;28;253947;-82
2022/04/30 00:17:27;;;;;;;17.67;9.77;;;5.90;99.90;;;;;;5018581;28;20067;-82
2022/04/30 00:19:56;;;;;;;18.10;9.77;;;5.80;99.90;;;;;;4980458;28;109059;-82
2022/04/30 00:22:22;;;;;;;21.45;10.45;;;5.80;99.90;;;;;;5038729;28;20068;-82
2022/04/30 00:24:49;;;;;;;20.90;9.32;;;5.80;99.90;;;;;;4976427;28;245155;-83
2022/04/30 00:27:15;;;;;;;19.77;9.95;;;5.80;99.90;;;;;;5025413;28;20049;-82
2022/04/30 00:29:45;;;;;;;19.13;10.00;;;5.80;99.90;;;;;;5009084;28;136821;-82
2022/04/30 00:32:12;;;;;;;18.60;9.10;;;5.70;99.90;;;;;;5028733;28;20041;-82
2022/04/30 00:34:44;;;;;;;20.50;9.45;;;5.80;99.90;;;;;;4986115;28;172361;-82
2022/04/30 00:37:11;;;;;;;17.02;8.95;;;5.70;99.90;;;;;;5017968;28;20061;-83
2022/04/30 00:39:40;;;;;;;21.00;10.40;;;5.80;99.90;;;;;;5008612;28;39128;-81
2022/04/30 00:42:11;;;;;;;18.27;10.30;;;5.70;99.90;;;;;;5023934;28;20053;-81
2022/04/30 00:44:40;;;;;;;19.10;9.50;;;5.70;99.90;;;;;;4981967;28;196943;-82
2022/04/30 00:47:06;;;;;;;18.60;9.32;;;5.80;99.90;;;;;;5022341;28;20057;-81
2022/04/30 00:49:32;;;;;;;19.25;9.18;;;5.70;99.90;;;;;;4963019;28;84287;-82
2022/04/30 00:52:02;;;;;;;17.25;9.25;;;5.70;99.90;;;;;;5037946;28;20068;-82
2022/04/30 00:54:37;;;;;;;17.85;8.52;;;5.70;99.90;;;;;;4983811;28;27693;-82
2022/04/30 00:57:06;;;;;;;20.77;9.48;;;5.70;99.90;;;;;;5013150;28;20097;-83
2022/04/30 00:59:44;;;;;;;17.13;8.83;;;5.80;99.90;;;;;;4862840;28;3017335;-82
2022/04/30 01:02:13;;;;;;;17.00;8.63;;;5.70;99.90;;;;;;5040553;28;20060;-82
2022/04/30 01:04:39;;;;;;;21.85;10.07;;;5.80;99.90;;;;;;4669472;28;9015888;-82
2022/04/30 01:07:10;;;;;;;20.55;9.43;;;5.70;99.90;;;;;;5019166;28;20045;-81
2022/04/30 01:09:42;;;;;;;18.00;9.07;;;5.80;99.90;;;;;;4972922;28;20548;-83
2022/04/30 01:12:11;;;;;;;19.58;8.85;;;5.80;99.90;;;;;;5042710;28;20057;-83
2022/04/30 01:14:39;;;;;;;17.70;9.52;;;5.70;99.90;;;;;;4887343;28;3020047;-81
2022/04/30 01:17:08;;;;;;;18.83;8.80;;;5.80;99.90;;;;;;5048075;28;20068;-83
2022/04/30 01:19:37;;;;;;;16.88;8.63;;;5.80;99.90;;;;;;4991207;28;24681;-83
2022/04/30 01:22:14;;;;;;;20.60;9.20;;;5.80;99.90;;;;;;5042421;28;20056;-82
2022/04/30 01:24:41;;;;;;;16.23;8.73;;;5.70;99.90;;;;;;5005314;28;96808;-83
2022/04/30 01:27:08;;;;;;;14.55;8.75;;;5.80;99.90;;;;;;5040861;28;20037;-83
2022/04/30 01:29:36;;;;;;;19.02;8.85;;;5.70;99.90;;;;;;5002307;28;234602;-82
2022/04/30 01:37:38;;;;;;;17.80;9.30;;;5.70;99.90;;;;;;5016938;28;20057;-81
2022/04/30 01:40:09;;;;;;;15.88;8.95;;;5.70;99.90;;;;;;4984047;28;230337;-82
2022/04/30 01:42:42;;;;;;;20.15;9.30;;;5.70;99.90;;;;;;5017644;28;20057;-82
2022/04/30 01:45:12;;;;;;;18.40;8.77;;;5.70;99.90;;;;;;4962378;28;55485;-82
2022/04/30 01:47:44;;;;;;;17.83;9.68;;;5.60;99.90;;;;;;5013040;28;20062;-82
2022/04/30 01:50:11;;;;;;;18.10;9.18;;;5.70;99.90;;;;;;4978153;28;159110;-82
2022/04/30 01:52:37;;;;;;;18.50;9.60;;;5.70;99.90;;;;;;5012790;28;20050;-82
2022/04/30 01:55:04;;;;;;;17.95;9.27;;;5.70;99.90;;;;;;4963060;28;90561;-82
2022/04/30 01:57:31;;;;;;;19.98;10.10;;;5.70;99.90;;;;;;4986480;28;20049;-82
2022/04/30 02:00:00;;;;;;;17.02;9.70;;;5.70;99.90;;;;;;4976851;28;104168;-82
2022/04/30 02:02:30;;;;;;;18.45;9.63;;;5.70;99.90;;;;;;5015491;28;20538;-83
2022/04/30 02:05:01;;;;;;;18.05;9.60;;;5.70;99.90;;;;;;4951202;28;201037;-83
2022/04/30 02:07:39;;;;;;;16.23;9.40;;;5.70;99.90;;;;;;4976684;28;20072;-83
2022/04/30 02:10:07;;;;;;;18.65;9.82;;;5.70;99.90;;;;;;4929189;28;266124;-82
2022/04/30 02:12:34;;;;;;;15.45;9.35;;;5.60;99.90;;;;;;4992779;28;20057;-83
2022/04/30 02:15:01;;;;;;;15.57;9.02;;;5.60;99.90;;;;;;4973272;28;144670;-81
2022/04/30 02:17:29;;;;;;;17.02;9.48;;;5.60;99.90;;;;;;5043099;28;20045;-82
2022/04/30 02:22:43;;;;;;;18.38;9.38;;;5.70;99.90;;;;;;5023754;28;20517;-81
2022/04/30 02:25:13;;;;;;;14.27;8.88;;;5.60;99.90;;;;;;5004646;28;94112;-82
2022/04/30 02:27:48;;;;;;;15.88;8.90;;;5.60;99.90;;;;;;5040919;28;20044;-82
2022/04/30 02:30:19;;;;;;;17.70;8.35;;;5.50;99.90;;;;;;5005920;28;126828;-83
2022/04/30 02:32:57;;;;;;;19.70;9.90;;;5.60;99.90;;;;;;5000023;28;20061;-82
2022/04/30 02:35:29;;;;;;;15.27;8.63;;;5.60;99.90;;;;;;4966617;28;218541;-82
2022/04/30 02:38:00;;;;;;;21.40;10.07;;;5.60;99.90;;;;;;5037929;28;20056;-82
2022/04/30 02:40:29;;;;;;;18.70;10.65;;;5.60;99.90;;;;;;4941972;28;73640;-82
2022/04/30 02:43:06;;;;;;;20.70;9.35;;;5.70;99.90;;;;;;5007983;28;20060;-83
2022/04/30 02:45:41;;;;;;;16.83;8.63;;;5.60;99.90;;;;;;4997316;28;197676;-83
2022/04/30 02:48:09;;;;;;;16.40;9.85;;;5.60;99.90;;;;;;5035949;28;20045;-82
2022/04/30 02:50:39;;;;;;;15.52;8.38;;;5.60;99.90;;;;;;4978328;28;276110;-83
2022/04/30 02:53:06;;;;;;;18.15;9.05;;;5.60;99.90;;;;;;5035166;28;20065;-81
2022/04/30 02:55:32;;;;;;;17.20;8.95;;;5.60;99.90;;;;;;5000123;28;64843;-82
2022/04/30 03:00:57;;;;;;;18.20;8.75;;;5.50;99.90;;;;;;4967995;28;165442;-82
2022/04/30 03:03:24;;;;;;;15.32;8.30;;;5.50;99.90;;;;;;4974570;28;20053;-83
2022/04/30 03:05:59;;;;;;;16.02;8.15;;;5.50;99.90;;;;;;4987719;28;143991;-83
2022/04/30 03:08:29;;;;;;;19.55;8.73;;;5.60;99.90;;;;;;5012573;28;20057;-82
2022/04/30 03:11:00;;;;;;;14.95;7.95;;;5.60;99.90;;;;;;5016454;28;66449;-83
2022/04/30 03:13:30;;;;;;;16.13;7.88;;;5.50;99.90;;;;;;4976180;28;20984;-83
2022/04/30 03:21:41;;;;;;;15.43;8.23;;;5.50;99.90;;;;;;5036110;28;123213;-83
2022/04/30 03:21:44;;;;;;;14.02;7.47;;;5.60;99.90;;;;;;5030546;28;20041;-82
2022/04/30 03:24:29;;;;;;;15.20;7.90;;;5.50;99.90;;;;;;5008308;28;135972;-82
2022/04/30 03:26:58;;;;;;;13.75;7.50;;;5.50;99.90;;;;;;5000703;28;20060;-82
2022/04/30 03:29:24;;;;;;;16.20;8.18;;;5.50;99.90;;;;;;4992346;28;124535;-83
2022/04/30 03:31:50;;;;;;;15.25;8.38;;;5.50;99.90;;;;;;5001928;28;20049;-82
2022/04/30 03:34:17;;;;;;;16.25;8.73;;;5.50;99.90;;;;;;4973456;28;175179;-82
2022/04/30 03:36:44;;;;;;;16.50;9.30;;;5.50;99.90;;;;;;5012155;28;20117;-83
2022/04/30 03:39:13;;;;;;;18.00;8.15;;;5.50;99.90;;;;;;4965693;28;162382;-81
2022/04/30 03:41:40;;;;;;;14.70;8.80;;;5.50;99.90;;;;;;5042545;28;20068;-82
2022/04/30 03:44:07;;;;;;;20.30;8.13;;;5.50;99.90;;;;;;4993356;28;177547;-83
2022/04/30 03:46:34;;;;;;;15.10;7.72;;;5.50;99.90;;;;;;5022738;28;20214;-82
2022/04/30 03:49:01;;;;;;;17.30;8.60;;;5.50;99.90;;;;;;4961537;28;148796;-82
2022/04/30 03:51:32;;;;;;;19.08;8.57;;;5.50;99.90;;;;;;5018258;28;20060;-82
2022/04/30 03:54:01;;;;;;;;;;;5.50;99.90;;;;;;4998652;28;67876;-83
2022/04/30 03:56:28;;;;;;;18.58;8.98;;;5.50;99.90;;;;;;5018869;28;19928;-82
2022/04/30 03:59:02;;;;;;;16.02;8.20;;;5.50;99.90;;;;;;4968991;28;20048;-82
2022/04/30 04:01:28;;;;;;;14.18;7.80;;;5.50;99.90;;;;;;4983668;28;20052;-82
2022/04/30 04:03:57;;;;;;;18.80;8.80;;;5.50;99.90;;;;;;4971036;28;35828;-82
2022/04/30 04:06:24;;;;;;;16.42;9.32;;;5.50;99.90;;;;;;4988008;28;46652;-84
2022/04/30 04:08:52;;;;;;;15.02;8.68;;;5.50;99.90;;;;;;4973661;28;20049;-83
2022/04/30 04:11:20;;;;;;;17.23;9.05;;;5.50;99.90;;;;;;5001264;28;246716;-83
2022/04/30 04:19:59;;;;;;;18.70;9.75;;;5.50;99.90;;;;;;4984851;28;266283;-82
2022/04/30 04:22:26;;;;;;;15.25;9.23;;;5.50;99.90;;;;;;5019705;28;20064;-84
2022/04/30 04:27:47;;;;;;;16.85;10.15;;;5.50;99.90;;;;;;5032866;28;20041;-84
2022/04/30 04:31:08;;;;;;;17.20;8.45;;;5.50;99.90;;;;;;5009197;28;31362;-85
2022/04/30 04:33:53;;;;;;;17.53;9.17;;;5.50;99.90;;;;;;4996390;28;20377;-85
2022/04/30 04:36:25;;;;;;;15.30;9.05;;;5.50;99.90;;;;;;4959783;28;20513;-85
2022/04/30 04:38:51;;;;;;;15.38;8.23;;;5.50;99.90;;;;;;4966375;28;20526;-86
2022/04/30 04:41:18;;;;;;;17.85;9.40;;;5.60;99.90;;;;;;5029632;22;200348;-81
2022/04/30 04:43:44;;;;;;;15.00;8.63;;;5.60;99.90;;;;;;4997427;28;20068;-80
2022/04/30 04:46:11;;;;;;;14.02;8.88;;;5.60;99.90;;;;;;5007868;28;28358;-80
2022/04/30 04:48:37;;;;;;;17.38;8.05;;;5.60;99.90;;;;;;5018077;28;20051;-81
2022/04/30 04:51:04;;;;;;;15.43;8.73;;;5.70;99.90;;;;;;4997338;28;126515;-80
2022/04/30 04:53:30;;;;;;;19.20;9.05;;;5.70;99.90;;;;;;5018041;22;20045;-74
2022/04/30 04:55:56;;;;;;;17.02;9.32;;;5.80;99.90;;;;;;5011016;28;55976;-74
2022/04/30 04:58:22;;;;;;;22.55;9.98;;;5.80;99.90;;;;;;5031793;28;20072;-74
2022/04/30 05:00:49;;;;;;;15.73;8.43;;;5.80;99.90;;;;;;5061108;28;245488;-75
2022/04/30 05:03:15;;;;;;;14.20;8.20;;;5.80;99.90;;;;;;5034196;28;20063;-73
2022/04/30 05:05:41;;;;;;;14.30;8.93;;;5.90;99.90;;;;;;4955814;28;161027;-73
2022/04/30 05:08:08;;;;;;;15.50;8.77;;;5.90;99.90;;;;;;5022470;28;20053;-74
2022/04/30 05:10:36;;;;;;;16.17;8.98;;;6.00;99.90;;;;;;5006598;22;20067;-81
2022/04/30 05:13:02;;;;;;;21.15;9.93;;;6.00;99.90;;;;;;5015243;28;20041;-81
2022/04/30 05:15:28;;;;;;;15.95;9.20;;;6.10;99.90;;;;;;4989595;28;40281;-82
2022/04/30 05:17:55;;;;;;;16.60;9.63;;;6.10;99.90;;;;;;5013418;28;20498;-81
2022/04/30 05:20:22;;;;;;;15.60;9.18;;;6.20;99.90;;;;;;4979345;28;218180;-82
2022/04/30 05:22:48;;;;;;;17.00;9.15;;;6.30;99.90;;;;;;5011637;28;20068;-82
2022/04/30 05:25:14;;;;;;;17.98;9.02;;;6.40;99.90;;;;;;4979042;28;204236;-82
2022/04/30 05:27:40;;;;;;;20.25;10.30;;;6.40;99.90;;;;;;5010359;28;20056;-82
2022/04/30 05:30:07;;;;;;;16.45;9.90;;;6.50;99.90;;;;;;5002160;28;162618;-82
2022/04/30 05:32:33;;;;;;;15.43;9.00;;;6.60;99.90;;;;;;5021392;28;20050;-81
2022/04/30 05:34:59;;;;;;;17.52;10.10;;;6.60;99.90;;;;;;4986496;28;20320;-81
2022/04/30 05:37:25;;;;;;;16.67;9.63;;;6.70;99.90;;;;;;5017676;28;20050;-81
2022/04/30 05:39:51;;;;;;;17.20;9.57;;;6.70;99.90;;;;;;4987874;28;228699;-81
2022/04/30 05:42:17;;;;;;;16.40;9.20;;;6.80;99.90;;;;;;5015453;28;20045;-82
2022/04/30 05:44:43;;;;;;;16.75;10.18;;;6.90;99.90;;;;;;4970247;28;53634;-82
2022/04/30 05:47:10;;;;;;;14.38;8.80;;;7.00;99.90;;;;;;5019828;28;20057;-82
2022/04/30 05:49:36;;;;;;;17.45;9.55;;;7.10;99.90;;;;;;4979694;28;226829;-82
2022/04/30 05:52:02;;;;;;;16.55;9.77;;;7.20;99.90;;;;;;5000750;28;20049;-82
2022/04/30 05:54:28;;;;;;;13.88;8.52;;;7.30;99.90;;;;;;4972843;28;204364;-82
2022/04/30 05:56:54;;;;;;;16.63;8.32;;;7.40;99.90;;;;;;5006064;28;20045;-81
2022/04/30 05:59:20;;;;;;;15.25;9.00;;;7.50;99.90;;;;;;4975753;28;234341;-81
2022/04/30 06:01:46;;;;;;;17.33;9.18;;;7.70;99.90;;;;;;4999342;28;20149;-82
2022/04/30 06:04:13;;;;;;;17.25;8.85;;;7.80;99.90;;;;;;4967951;28;90483;-83
2022/04/30 06:06:39;;;;;;;15.27;9.50;;;7.90;99.90;;;;;;5020292;28;20060;-83
2022/04/30 06:09:05;;;;;;;14.57;8.65;;;8.00;99.90;;;;;;4975163;28;279633;-82
2022/04/30 06:11:31;;;;;;;18.05;9.52;;;8.10;99.90;;;;;;5011088;28;20049;-82
2022/04/30 06:13:57;;;;;;;16.25;8.90;;;8.20;99.90;;;;;;4982138;28;95915;-82
2022/04/30 06:16:24;;;;;;;18.95;8.45;;;8.20;99.90;;;;;;5013966;28;20424;-82
2022/04/30 06:18:50;;;;;;;17.33;8.32;;;8.30;99.90;;;;;;4995582;28;20390;-81
2022/04/30 06:21:16;;;;;;;11.70;7.72;;;8.40;99.90;;;;;;5018759;28;20394;-80
2022/04/30 06:23:42;;;;;;;14.70;7.72;;;8.40;99.90;;;;;;4994651;28;20045;-81
2022/04/30 06:26:08;;;;;;;12.63;7.60;;;8.50;99.90;;;;;;4985860;28;124418;-80
2022/04/30 06:28:34;;;;;;;14.52;7.97;;;8.50;99.90;;;;;;5005141;28;20047;-81
2022/04/30 06:31:02;;;;;;;16.08;8.20;;;8.50;99.90;;;;;;5001381;28;210080;-81
2022/04/30 06:33:32;;;;;;;14.65;8.10;;;8.70;99.90;;;;;;5006994;28;20065;-83
2022/04/30 06:35:58;;;;;;;16.50;8.20;;;8.70;99.90;;;;;;5003822;28;140040;-82
2022/04/30 06:38:25;;;;;;;15.18;7.82;;;8.70;99.90;;;;;;4992470;28;20049;-83
2022/04/30 06:40:51;;;;;;;17.45;7.38;;;8.70;99.90;;;;;;5004981;28;183641;-82
2022/04/30 06:43:17;;;;;;;15.93;7.70;;;8.90;99.90;;;;;;5009593;28;20057;-82
2022/04/30 06:45:43;;;;;;;13.02;7.30;;;8.90;99.90;;;;;;5008308;28;37472;-81
2022/04/30 06:48:09;;;;;;;15.70;7.93;;;8.90;99.90;;;;;;5024310;28;20054;-82
2022/04/30 06:50:36;;;;;;;17.05;7.93;;;9.00;99.90;;;;;;4993031;28;172712;-83
2022/04/30 06:58:41;;;;;;;15.85;7.68;;;9.20;99.90;;;;;;4994666;28;20049;-83
2022/04/30 07:04:01;;;;;;;15.32;7.13;;;9.30;99.90;;;;;;4998258;28;20068;-83
2022/04/30 07:06:32;;;;;;;13.93;6.65;;;9.40;99.90;;;;;;4990111;28;58313;-82
2022/04/30 07:08:58;;;;;;;15.88;6.70;;;9.50;99.90;;;;;;4987081;28;63663;-82
2022/04/30 07:11:25;;;;;;;16.25;7.28;;;9.60;99.90;;;;;;5034702;28;20060;-83
2022/04/30 07:13:52;;;;;;;16.27;6.90;;;9.80;99.90;;;;;;5004854;28;20041;-82
2022/04/30 07:16:18;;;;;;;13.60;6.57;;;9.90;99.90;;;;;;4978675;28;59074;-83
2022/04/30 07:18:44;;;;;;;14.63;6.55;;;9.90;99.90;;;;;;4997919;28;20044;-83
2022/04/30 07:21:12;;;;;;;16.08;6.90;;;10.10;99.90;;;;;;5037690;28;57091;-83
2022/04/30 07:23:42;;;;;;;16.05;6.22;;;10.20;99.90;;;;;;5022924;28;20055;-82
2022/04/30 07:26:09;;;;;;;14.13;6.18;;;10.40;99.90;;;;;;5014253;28;182820;-84
2022/04/30 07:28:35;;;;;;;13.27;6.53;;;10.60;99.90;;;;;;4991258;28;20043;-84
2022/04/30 07:31:02;;;;;;;14.68;6.13;;;10.80;99.90;;;;;;5012310;28;90919;-84
2022/04/30 07:33:29;;;;;;;16.42;5.97;;;11.00;99.90;;;;;;4975380;28;20053;-84
2022/04/30 07:35:55;;;;;;;11.48;6.00;;;11.30;99.90;;;;;;5014519;28;205393;-84
2022/04/30 07:38:22;;;;;;;15.40;5.75;;;11.50;99.90;;;;;;4987889;28;20056;-84
2022/04/30 07:40:48;;;;;;;18.88;5.97;;;11.90;99.90;;;;;;5016144;28;174118;-83
2022/04/30 07:43:14;;;;;;;14.23;6.55;;;12.10;99.90;;;;;;5014507;28;20049;-84
2022/04/30 07:45:41;;;;;;;12.20;5.78;;;11.90;99.90;;;;;;4978732;28;146201;-84
2022/04/30 07:48:07;;;;;;;12.77;6.07;;;11.90;99.90;;;;;;5017634;28;20538;-83
2022/04/30 07:50:36;;;;;;;16.25;5.65;;;12.00;99.90;;;;;;4987693;28;152988;-84
2022/04/30 07:53:06;;;;;;;14.82;5.97;;;12.20;99.90;;;;;;4996918;28;20049;-85
2022/04/30 07:55:33;;;;;;;12.40;5.43;;;12.20;99.90;;;;;;4979845;28;163884;-84
2022/04/30 07:58:02;;;;;;;16.05;5.30;;;12.30;99.90;;;;;;5026098;28;20049;-84
2022/04/30 08:00:29;;;;;;;15.07;5.85;;;12.40;99.90;;;;;;4985477;28;69410;-84
2022/04/30 08:02:56;;;;;;;13.50;5.38;;;12.40;99.90;;;;;;5008382;28;20504;-83
2022/04/30 08:05:23;;;;;;;11.10;4.93;;;12.50;99.90;;;;;;4979173;28;216802;-83
2022/04/30 08:07:51;;;;;;;11.60;4.63;;;12.50;99.90;;;;;;5027556;28;20055;-82
2022/04/30 08:10:18;;;;;;;11.82;4.60;;;12.40;99.90;;;;;;4993868;28;20453;-84
2022/04/30 08:12:44;;;;;;;13.93;4.75;;;12.40;99.90;;;;;;5020439;28;20049;-83
2022/04/30 08:15:10;;;;;;;11.63;4.40;;;12.40;99.90;;;;;;4993268;28;20078;-83
2022/04/30 08:17:38;;;;;;;10.63;4.18;;;12.40;99.90;;;;;;5030187;28;20049;-83
2022/04/30 08:20:08;;;;;;;9.75;4.10;;;12.50;99.90;;;;;;4993058;28;52175;-83
2022/04/30 08:22:34;;;;;;;14.30;5.15;;;12.70;99.90;;;;;;5009715;28;20049;-83
2022/04/30 08:25:01;;;;;;;13.95;4.60;;;12.90;99.90;;;;;;4982041;28;86873;-83
2022/04/30 08:27:27;;;;;;;11.52;4.68;;;12.90;99.90;;;;;;5014581;28;20060;-82
2022/04/30 08:29:53;;;;;;;13.68;4.65;;;13.00;99.90;;;;;;4980742;28;57918;-83
2022/04/30 08:32:23;;;;;;;11.25;4.50;;;13.10;99.90;;;;;;5008036;28;20056;-83
2022/04/30 08:34:50;;;;;;;14.63;4.38;;;13.20;99.90;;;;;;4971032;28;28671;-84
2022/04/30 08:37:16;;;;;;;13.23;4.90;;;13.50;99.90;;;;;;5026495;28;20099;-84
2022/04/30 08:39:43;;;;;;;12.95;4.75;;;13.60;99.90;;;;;;4985344;28;278221;-84
2022/04/30 08:42:09;;;;;;;13.48;4.93;;;13.70;99.90;;;;;;5019562;28;20072;-83
2022/04/30 08:44:38;;;;;;;10.02;4.20;;;14.00;99.90;;;;;;4977401;28;186988;-83
2022/04/30 08:47:06;;;;;;;11.45;4.00;;;14.10;99.90;;;;;;5016714;28;20060;-83
2022/04/30 08:49:33;;;;;;;11.05;4.22;;;14.30;99.90;;;;;;4980642;28;206101;-84
2022/04/30 08:51:59;;;;;;;10.90;3.97;;;14.50;99.90;;;;;;5020387;28;20060;-84
2022/04/30 08:54:26;;;;;;;14.15;4.25;;;14.60;99.90;;;;;;5005253;28;57346;-83
2022/04/30 08:56:54;;;;;;;12.77;3.80;;;14.70;99.90;;;;;;5026901;28;20056;-83
2022/04/30 08:59:21;;;;;;;9.40;3.67;;;14.80;99.90;;;;;;5002436;28;159065;-85
2022/04/30 09:01:52;;;;;;;10.70;3.95;;;14.80;99.40;;;;;;5023912;28;20057;-83
2022/04/30 09:04:19;;;;;;;13.25;3.70;;;15.00;99.80;;;;;;4963174;28;149319;-83
2022/04/30 09:06:55;;;;;;;10.48;3.78;;;14.90;98.90;;;;;;5019915;28;20316;-83
2022/04/30 09:09:30;;;;;;;11.13;3.88;;;14.80;98.30;;;;;;4968364;28;20052;-83
2022/04/30 09:12:08;;;;;;;9.25;3.55;;;15.00;99.70;;;;;;5046663;28;20033;-83
2022/04/30 09:14:34;;;;;;;10.48;3.67;;;15.40;99.90;;;;;;4997929;28;214052;-83
2022/04/30 09:17:06;;;;;;;9.27;3.60;;;15.60;98.80;;;;;;5029558;28;20064;-84
2022/04/30 09:19:43;;;;;;;8.55;2.72;;;15.70;98.20;;;;;;4991919;28;128470;-83
2022/04/30 09:22:10;;;;;;;9.93;3.10;;;15.70;96.90;;;;;;5025693;28;20497;-83
2022/04/30 09:24:50;;;;;;;7.90;2.85;;;15.80;96.60;;;;;;4987216;28;20049;-84
2022/04/30 09:27:17;;;;;;;9.60;3.15;;;16.00;95.60;;;;;;4997085;28;20049;-83
2022/04/30 09:29:45;;;;;;;10.00;3.17;;;16.10;93.50;;;;;;4973161;28;252499;-84
2022/04/30 09:32:18;;;;;;;10.93;3.33;;;15.70;92.10;;;;;;5031775;28;20537;-83
2022/04/30 09:37:49;;;;;;;8.95;3.25;;;15.90;95.30;;;;;;5025914;28;20868;-83
2022/04/30 09:40:15;;;;;;;9.75;3.08;;;15.90;91.20;;;;;;4986061;28;212498;-84
2022/04/30 09:42:42;;;;;;;9.07;3.03;;;15.80;92.90;;;;;;5009618;28;20056;-84
2022/04/30 09:45:21;;;;;;;9.27;3.10;;;16.00;93.50;;;;;;4978851;28;224350;-84
2022/04/30 09:47:47;;;;;;;11.57;3.80;;;16.30;92.70;;;;;;5029617;28;20418;-84
2022/04/30 09:55:54;;;;;;;10.57;3.00;;;17.20;92.40;;;;;;4993204;28;195530;-83
2022/04/30 09:58:28;;;;;;;10.32;3.00;;;17.30;91.30;;;;;;4995163;28;20721;-84
2022/04/30 10:00:58;;;;;;;9.57;2.83;;;17.30;84.20;;;;;;5010152;28;69242;-82
2022/04/30 10:03:28;;;;;;;8.38;2.65;;;16.70;82.00;;;;;;5000352;28;20076;-84
2022/04/30 10:06:04;;;;;;;7.45;2.50;;;16.50;82.30;;;;;;4998576;28;141021;-82
2022/04/30 10:08:35;;;;;;;8.88;2.90;;;16.20;80.40;;;;;;5003227;28;20041;-82
2022/04/30 10:11:26;;;;;;;7.28;2.20;;;15.80;77.30;;;;;;5035540;28;21795;-83
2022/04/30 10:14:13;;;;;;;8.98;2.53;;;15.70;80.60;;;;;;4992553;28;20421;-83
2022/04/30 10:16:42;;;;;;;8.90;2.67;;;15.70;81.90;;;;;;5026989;28;20050;-83
2022/04/30 10:19:16;;;;;;;8.25;2.67;;;15.60;82.00;;;;;;4988501;28;31818;-83
2022/04/30 10:21:42;;;;;;;9.95;2.65;;;15.60;76.30;;;;;;5041838;28;20076;-83
2022/04/30 10:24:12;;;;;;;9.25;2.53;;;15.20;79.40;;;;;;4994826;28;23169;-82
2022/04/30 10:26:57;;;;;;;8.55;2.78;;;14.90;79.50;;;;;;5021122;28;20438;-83
2022/04/30 10:29:23;;;;;;;8.18;2.58;;;14.80;81.20;;;;;;4977826;28;189964;-82
2022/04/30 10:31:49;;;;;;;10.40;2.60;;;14.80;84.70;;;;;;5022773;28;20044;-82
2022/04/30 10:34:16;;;;;;;8.82;2.80;;;14.80;84.10;;;;;;4985991;28;25816;-83
2022/04/30 10:36:42;;;;;;;10.30;2.80;;;14.80;83.40;;;;;;5029724;28;20068;-83
2022/04/30 10:39:18;;;;;;;7.65;2.33;;;14.70;81.30;;;;;;4996757;28;224469;-83
2022/04/30 10:41:48;;;;;;;7.68;2.67;;;14.50;77.10;;;;;;5031418;28;20056;-83
2022/04/30 10:44:15;;;;;;;8.80;2.67;;;14.20;79.20;;;;;;4989040;28;160724;-82
2022/04/30 10:46:45;;;;;;;8.02;2.97;;;14.00;84.20;;;;;;5021520;28;20461;-83
2022/04/30 10:49:11;;;;;;;9.95;2.88;;;14.00;87.40;;;;;;4984576;28;160823;-82
2022/04/30 10:51:42;;;;;;;8.82;3.00;;;14.20;89.00;;;;;;5031065;28;20061;-83
2022/04/30 10:54:18;;;;;;;8.30;2.88;;;14.20;88.20;;;;;;4983003;28;180230;-83
2022/04/30 10:56:46;;;;;;;9.02;3.10;;;14.30;90.50;;;;;;5029750;28;20056;-83
2022/04/30 10:59:21;;;;;;;9.15;3.00;;;14.30;91.20;;;;;;4981984;28;154244;-83
2022/04/30 11:01:48;;;;;;;10.13;3.17;;;14.30;90.40;;;;;;5013768;28;20049;-84
2022/04/30 11:04:18;;;;;;;8.88;3.53;;;14.30;90.60;;;;;;4999294;28;177898;-83
2022/04/30 11:06:50;;;;;;;11.75;3.90;;;14.20;91.90;;;;;;5011585;28;20065;-83
2022/04/30 11:09:17;;;;;;;12.10;4.65;;;14.10;92.90;;;;;;4976900;28;172332;-83
2022/04/30 11:11:46;;;;;;;9.82;4.40;;;13.60;95.20;;;;;;5024890;28;20060;-83
2022/04/30 11:14:12;;;;;;;11.10;4.22;;;13.20;96.60;;;;;;4973930;28;20057;-83
2022/04/30 11:16:41;;;;;;;12.43;4.32;;;13.00;97.10;;;;;;5002843;28;20049;-83
2022/04/30 11:19:10;;;;;;;12.18;4.03;;;12.80;97.50;;;;;;4974275;28;156853;-83
2022/04/30 11:21:49;;;;;;;12.32;4.28;;;12.70;97.60;;;;;;5024007;28;20061;-83
2022/04/30 11:24:29;;;;;;;9.45;4.10;;;12.70;97.90;;;;;;4999493;23;235207;-82
2022/04/30 11:27:00;;;;;;;10.07;4.15;;;12.50;97.90;;;;;;5040910;28;20068;-82
2022/04/30 11:29:27;;;;;;;10.05;4.25;;;12.40;98.00;;;;;;5000732;28;215485;-82
2022/04/30 11:31:54;;;;;;;11.73;4.20;;;12.30;97.90;;;;;;5029779;28;20502;-82
2022/04/30 11:34:21;;;;;;;9.82;3.83;;;12.40;98.00;;;;;;4965259;28;164268;-82
2022/04/30 11:36:54;;;;;;;10.07;3.58;;;12.30;97.90;;;;;;5021136;28;20061;-82
2022/04/30 11:39:30;;;;;;;9.23;3.55;;;12.30;97.80;;;;;;4979958;28;249631;-82
2022/04/30 11:42:24;;;;;;;;;;;;;;;;;;;;;
2022/04/30 11:45:57;;;;;;;10.77;4.00;;;12.10;98.40;;;;;;4653787;28;9011900;-83
2022/04/30 11:48:24;;;;;;;12.98;3.97;;;12.20;99.00;;;;;;5002903;28;20041;-82
2022/04/30 11:50:53;;;;;;;12.25;4.30;;;12.10;98.90;;;;;;5017356;28;88305;-82
2022/04/30 11:53:22;;;;;;;11.98;4.45;;;12.10;99.10;;;;;;4992500;28;20486;-82
2022/04/30 11:55:48;;;;;;;11.25;4.55;;;12.10;99.50;;;;;;4996426;28;221463;-82
2022/04/30 11:58:14;;;;;;;10.73;4.20;;;12.00;99.80;;;;;;5026762;28;20045;-82
2022/04/30 12:00:43;;;;;;;10.35;4.38;;;12.00;99.90;;;;;;4992679;28;137034;-82
2022/04/30 12:03:09;;;;;;;10.82;4.65;;;12.00;99.70;;;;;;5042300;28;20053;-82
2022/04/30 12:05:36;;;;;;;10.20;4.43;;;12.00;99.90;;;;;;4977040;28;273333;-82
2022/04/30 12:08:04;;;;;;;11.70;4.72;;;11.90;99.90;;;;;;5028079;28;20068;-83
2022/04/30 12:10:36;;;;;;;10.27;4.32;;;11.90;99.90;;;;;;4986744;28;250453;-82
2022/04/30 12:13:02;;;;;;;11.80;4.28;;;11.90;99.90;;;;;;5029541;28;20065;-82
2022/04/30 12:15:29;;;;;;;10.27;4.28;;;12.00;99.80;;;;;;4986639;28;205164;-82
2022/04/30 12:27:02;;;;;;;12.38;4.60;;;12.20;99.90;;;;;;4987139;28;20670;-82
2022/04/30 12:29:35;;;;;;;10.68;4.72;;;12.20;99.70;;;;;;4970635;28;219058;-83
2022/04/30 12:32:07;;;;;;;9.82;4.03;;;12.30;99.80;;;;;;5009354;28;20054;-82
2022/04/30 12:34:49;;;;;;;11.20;4.97;;;12.40;99.70;;;;;;4975036;28;111584;-82
2022/04/30 12:37:48;;;;;;;11.48;4.55;;;12.50;99.70;;;;;;5019801;28;20050;-82
2022/04/30 12:40:14;;;;;;;12.02;4.60;;;12.50;99.60;;;;;;4872775;28;147281;-83
2022/04/30 12:42:44;;;;;;;10.77;4.63;;;12.60;99.50;;;;;;4932237;29;20059;-83
2022/04/30 12:45:10;;;;;;;11.63;4.40;;;12.70;99.50;;;;;;4875176;28;149020;-82
2022/04/30 12:47:42;;;;;;;11.43;4.20;;;12.80;99.20;;;;;;4944232;29;20059;-82
2022/04/30 12:50:13;;;;;;;11.18;4.28;;;12.80;98.90;;;;;;4876177;29;234821;-81
2022/04/30 12:52:44;;;;;;;;;;;12.80;98.60;;;;;;4931749;29;20055;-82
2022/04/30 12:55:18;;;;;;;9.10;3.78;;;12.70;98.50;;;;;;4882667;28;211170;-82
2022/04/30 12:57:48;;;;;;;;;;;12.80;98.60;;;;;;4937479;29;20047;-83
2022/04/30 13:00:20;;;;;;;8.95;3.40;;;12.90;98.10;;;;;;4885153;29;44994;-82
2022/04/30 13:02:55;;;;;;;11.05;3.92;;;13.00;98.10;;;;;;4920554;28;20058;-82
2022/04/30 13:05:24;;;;;;;8.35;3.60;;;13.10;97.60;;;;;;4867845;29;126849;-82
2022/04/30 13:07:58;;;;;;;10.93;3.75;;;13.20;97.70;;;;;;4929967;29;20043;-82
2022/04/30 13:13:37;;;;;;;13.05;4.30;;;13.50;97.30;;;;;;4948716;28;20051;-82
2022/04/30 13:16:11;;;;;;;11.32;4.10;;;13.50;97.30;;;;;;4877900;28;92308;-82
2022/04/30 13:18:47;;;;;;;9.23;3.85;;;13.60;97.30;;;;;;4989105;28;20055;-82
2022/04/30 13:21:19;;;;;;;15.43;4.50;;;13.70;97.40;;;;;;5007121;28;269227;-82
2022/04/30 13:23:45;;;;;;;10.15;4.20;;;13.70;97.10;;;;;;4970910;28;20064;-83
2022/04/30 13:26:11;;;;;;;12.27;4.13;;;13.70;97.40;;;;;;5004074;28;108490;-81
2022/04/30 13:28:41;;;;;;;12.38;5.00;;;13.80;97.60;;;;;;5009343;28;20060;-81
2022/04/30 13:31:07;;;;;;;11.80;4.78;;;13.80;97.70;;;;;;5014453;28;220576;-81
2022/04/30 13:33:33;;;;;;;11.05;4.97;;;14.00;97.60;;;;;;4973946;28;20050;-83
2022/04/30 13:36:11;;;;;;;10.68;4.63;;;13.90;97.40;;;;;;5020365;28;22029;-83
2022/04/30 13:38:38;;;;;;;13.60;4.70;;;13.90;97.50;;;;;;4983488;28;20055;-83
2022/04/30 13:41:13;;;;;;;11.13;4.30;;;14.00;97.50;;;;;;5010240;28;126496;-83
2022/04/30 13:43:42;;;;;;;10.98;4.20;;;13.80;97.10;;;;;;4992403;28;20030;-83